Time;durP1;ratioP1;P1;durP2;ratioP2;P2;SDS_P1;SDS_P2;PMS_P1;PMS_P2;Temp;Humidity;BMP_temperature;BMP_pressure;BME280_temperature;BME280_humidity;BME280_pressure;Samples;Min_cycle;Max_cycle;Signal;HPM_P1;HPM_P2
2022/01/22 00:00:00;;;;;;;5.97;3.97;;;3.80;99.90;;;4.52;100.00;99694.47;4920861;29;20497;-75
2022/01/22 00:02:30;;;;;;;8.00;3.40;;;3.80;99.90;;;4.54;100.00;99690.03;4925468;29;20956;-75
2022/01/22 00:05:00;;;;;;;9.33;4.30;;;3.80;99.90;;;4.57;100.00;99685.47;4924114;29;20507;-75
2022/01/22 00:07:30;;;;;;;4.83;3.17;;;3.90;99.90;;;4.57;100.00;99688.06;4923132;29;20469;-75
2022/01/22 00:10:00;;;;;;;7.47;3.70;;;3.90;99.90;;;4.57;100.00;99682.88;4923402;29;20504;-75
2022/01/22 00:12:45;;;;;;;7.20;3.10;;;3.90;99.90;;;4.56;100.00;99678.63;4922698;29;20486;-75
2022/01/22 00:15:16;;;;;;;5.60;3.10;;;3.90;99.90;;;4.58;100.00;99683.69;4921936;29;21066;-75
2022/01/22 00:17:47;;;;;;;11.57;4.50;;;3.80;99.90;;;4.54;100.00;99688.28;4924817;29;20556;-75
2022/01/22 00:20:19;;;;;;;5.70;3.50;;;3.80;99.90;;;4.55;100.00;99700.25;4919255;29;20554;-75
2022/01/22 00:22:50;;;;;;;5.07;3.30;;;3.80;99.90;;;4.58;100.00;99689.69;4924215;29;20473;-75
2022/01/22 00:25:23;;;;;;;9.17;4.00;;;3.90;99.90;;;4.57;100.00;99688.06;4925502;29;20468;-75
2022/01/22 00:27:53;;;;;;;8.90;3.80;;;4.00;99.90;;;4.50;100.00;99692.00;4923486;29;20591;-75
2022/01/22 00:30:26;;;;;;;14.50;4.57;;;3.90;99.90;;;4.52;100.00;99690.13;4922897;29;21210;-75
2022/01/22 00:32:56;;;;;;;7.27;3.60;;;3.90;99.90;;;4.54;100.00;99692.63;4923283;29;20565;-75
2022/01/22 00:35:27;;;;;;;9.17;4.10;;;4.00;99.90;;;4.51;100.00;99678.09;4923886;29;20603;-75
2022/01/22 00:37:56;;;;;;;13.00;4.77;;;3.90;99.90;;;4.48;100.00;99678.31;4923035;29;20484;-76
2022/01/22 00:40:27;;;;;;;8.43;4.13;;;4.00;99.90;;;4.45;100.00;99673.38;4923457;29;20462;-75
2022/01/22 00:42:57;;;;;;;9.53;4.20;;;3.90;99.90;;;4.42;100.00;99683.94;4923824;29;20558;-75
2022/01/22 00:45:28;;;;;;;5.60;3.50;;;3.90;99.90;;;4.46;100.00;99687.97;4919936;29;20574;-75
2022/01/22 00:47:58;;;;;;;7.53;3.90;;;4.00;99.90;;;4.45;100.00;99693.25;4921463;29;20494;-75
2022/01/22 00:50:27;;;;;;;20.17;4.03;;;3.90;99.90;;;4.47;100.00;99671.50;4923029;29;20474;-75
2022/01/22 00:52:56;;;;;;;7.07;4.07;;;3.90;99.90;;;4.50;100.00;99676.47;4923240;29;20572;-75
2022/01/22 00:55:27;;;;;;;8.97;4.43;;;4.00;99.90;;;4.48;100.00;99678.31;4918315;29;21035;-75
2022/01/22 00:57:59;;;;;;;7.03;3.50;;;4.00;99.90;;;4.44;100.00;99681.25;4922671;29;21071;-75
2022/01/22 01:00:29;;;;;;;8.83;4.20;;;3.80;99.90;;;4.45;100.00;99668.19;4923924;29;20482;-75
2022/01/22 01:02:59;;;;;;;10.10;4.97;;;3.80;99.90;;;4.47;100.00;99663.75;4920803;29;20475;-75
2022/01/22 01:05:30;;;;;;;10.20;3.90;;;3.80;99.90;;;4.42;100.00;99671.00;4918903;29;20808;-75
2022/01/22 01:08:00;;;;;;;13.63;4.40;;;3.80;99.90;;;4.41;100.00;99668.50;4922069;29;20471;-75
2022/01/22 01:10:29;;;;;;;11.80;4.57;;;3.70;99.90;;;4.44;100.00;99666.53;4921337;29;20893;-75
2022/01/22 01:12:59;;;;;;;11.90;4.47;;;3.80;99.90;;;4.44;100.00;99666.53;4921643;28;20951;-75
2022/01/22 01:15:40;;;;;;;9.20;4.33;;;3.80;99.90;;;4.44;100.00;99665.72;4919753;29;20473;-75
2022/01/22 01:32:20;;;;;;;9.83;4.97;;;3.80;99.90;;;4.42;100.00;99659.81;4921488;29;20539;-75
2022/01/22 01:35:07;;;;;;;9.20;5.10;;;3.80;99.90;;;4.42;100.00;99664.97;4922191;29;20851;-75
2022/01/22 01:37:37;;;;;;;13.70;5.87;;;3.70;99.90;;;4.43;100.00;99671.81;4922160;29;20463;-75
2022/01/22 01:40:11;;;;;;;9.60;5.63;;;3.70;99.90;;;4.41;100.00;99673.69;4920842;29;20555;-75
2022/01/22 01:42:48;;;;;;;10.80;5.50;;;3.80;99.90;;;4.38;100.00;99669.53;4921928;29;21045;-75
2022/01/22 01:45:18;;;;;;;14.30;5.90;;;3.80;99.90;;;4.41;100.00;99671.09;4919119;29;20516;-75
2022/01/22 01:47:55;;;;;;;9.73;5.73;;;3.80;99.90;;;4.42;100.00;99673.59;4921015;29;20466;-75
2022/01/22 01:50:25;;;;;;;10.73;4.47;;;3.80;99.90;;;4.45;100.00;99675.94;4921857;29;20466;-75
2022/01/22 01:53:07;;;;;;;9.07;5.03;;;3.80;99.90;;;4.44;100.00;99682.06;4922264;29;20501;-75
2022/01/22 01:55:48;;;;;;;8.30;4.43;;;3.90;99.90;;;4.44;100.00;99681.25;4921871;29;20474;-75
2022/01/22 01:58:18;;;;;;;9.97;4.77;;;3.80;99.90;;;4.41;100.00;99671.91;4921594;29;20674;-75
2022/01/22 02:00:50;;;;;;;8.10;4.73;;;3.80;99.90;;;4.42;100.00;99668.41;4920158;29;20466;-75
2022/01/22 02:03:19;;;;;;;10.93;4.33;;;3.90;99.90;;;4.45;100.00;99680.31;4920530;29;20471;-75
2022/01/22 02:05:50;;;;;;;12.30;4.37;;;4.00;99.90;;;4.32;100.00;99677.75;4920673;29;20959;-75
2022/01/22 02:08:20;;;;;;;14.43;5.07;;;3.80;99.90;;;4.36;100.00;99684.38;4922825;29;20481;-75
2022/01/22 02:10:57;;;;;;;12.60;4.23;;;3.90;99.90;;;4.39;100.00;99684.16;4924120;29;20501;-75
2022/01/22 02:13:44;;;;;;;9.10;3.70;;;3.80;99.90;;;4.44;100.00;99687.25;4922715;29;21014;-75
2022/01/22 02:25:03;;;;;;;8.97;3.60;;;3.90;99.90;;;4.41;100.00;99676.25;4921482;29;20490;-75
2022/01/22 02:27:33;;;;;;;8.60;4.47;;;3.80;99.90;;;4.37;100.00;99665.28;4922151;29;20906;-75
2022/01/22 02:30:02;;;;;;;8.43;3.90;;;3.80;99.90;;;4.35;100.00;99659.41;4923651;29;20501;-75
2022/01/22 02:35:23;;;;;;;3.93;3.10;;;3.80;99.90;;;4.33;100.00;99663.06;4919177;29;20880;-75
2022/01/22 02:37:59;;;;;;;7.70;3.17;;;3.80;99.90;;;4.25;100.00;99666.16;4924062;29;20562;-75
2022/01/22 02:40:35;;;;;;;9.83;3.27;;;3.80;99.90;;;4.29;100.00;99662.44;4919422;29;20548;-75
2022/01/22 02:43:05;;;;;;;9.83;2.73;;;3.80;99.90;;;4.32;100.00;99666.56;4922613;29;20471;-75
2022/01/22 02:45:36;;;;;;;5.90;3.67;;;3.80;99.90;;;4.35;100.00;99669.78;4917888;29;20505;-75
2022/01/22 02:48:06;;;;;;;6.57;3.30;;;3.90;99.90;;;4.32;100.00;99662.22;4922473;29;20880;-75
2022/01/22 02:50:36;;;;;;;5.50;3.80;;;3.70;99.90;;;4.35;100.00;99662.00;4922238;29;20549;-75
2022/01/22 02:53:11;;;;;;;8.87;3.50;;;3.80;99.90;;;4.35;100.00;99667.19;4922125;29;20887;-75
2022/01/22 02:55:43;;;;;;;7.57;3.10;;;3.80;99.90;;;4.37;100.00;99657.53;4921540;29;21056;-75
2022/01/22 02:58:15;;;;;;;7.00;3.30;;;3.80;99.90;;;4.31;100.00;99655.38;4924779;29;20669;-75
2022/01/22 03:00:44;;;;;;;9.03;2.60;;;3.80;99.90;;;4.30;100.00;99658.94;4924939;29;20628;-75
2022/01/22 03:03:15;;;;;;;8.50;3.70;;;3.70;99.90;;;4.28;100.00;99647.84;4923378;29;20844;-75
2022/01/22 03:05:45;;;;;;;12.17;2.93;;;3.70;99.90;;;4.31;100.00;99647.59;4923873;29;20473;-75
2022/01/22 03:08:16;;;;;;;8.53;3.23;;;3.70;99.90;;;4.34;100.00;99654.34;4925424;29;20499;-75
2022/01/22 03:10:51;;;;;;;6.17;2.97;;;3.80;99.90;;;4.35;100.00;99659.41;4927129;29;20469;-75
2022/01/22 03:16:44;;;;;;;6.77;3.00;;;3.80;99.90;;;4.29;100.00;99666.78;4869603;29;20471;-75
2022/01/22 03:19:29;;;;;;;4.40;3.00;;;3.80;99.90;;;4.30;100.00;99666.69;4869647;29;20461;-75
2022/01/22 03:22:12;;;;;;;5.70;3.40;;;3.80;99.90;;;4.25;100.00;99665.34;4908132;29;20493;-75
2022/01/22 03:27:31;;;;;;;10.83;3.37;;;3.70;99.90;;;4.31;100.00;99659.72;4924853;29;20467;-75
2022/01/22 03:30:03;;;;;;;10.80;2.87;;;3.70;99.90;;;4.33;100.00;99668.22;4925398;29;20463;-75
2022/01/22 03:32:39;;;;;;;5.63;3.23;;;3.70;99.90;;;4.35;100.00;99664.59;4923967;29;20485;-75
2022/01/22 03:35:12;;;;;;;6.87;2.63;;;3.60;99.90;;;4.36;100.00;99668.84;4925297;29;20863;-75
2022/01/22 03:37:43;;;;;;;7.60;3.77;;;3.70;99.90;;;4.39;100.00;99663.44;4924930;29;20884;-75
2022/01/22 03:40:15;;;;;;;5.40;3.13;;;3.70;99.90;;;4.39;100.00;99671.22;4922627;29;21001;-75
2022/01/22 03:42:46;;;;;;;4.50;2.90;;;3.70;99.90;;;4.40;100.00;99665.09;4923400;29;20903;-75
2022/01/22 03:45:17;;;;;;;8.37;3.13;;;3.70;99.90;;;4.42;100.00;99663.22;4920186;29;20504;-76
2022/01/22 03:47:46;;;;;;;7.90;3.37;;;3.80;99.90;;;4.42;100.00;99659.81;4924236;29;20552;-75
2022/01/22 03:50:19;;;;;;;6.73;2.90;;;3.80;99.90;;;4.42;100.00;99657.22;4922227;29;20455;-75
2022/01/22 03:52:48;;;;;;;5.90;3.17;;;3.70;99.90;;;4.39;100.00;99666.03;4922490;29;20489;-75
2022/01/22 03:55:32;;;;;;;10.40;3.57;;;3.80;99.90;;;4.42;100.00;99664.97;4923591;29;20557;-75
2022/01/22 03:58:03;;;;;;;12.60;4.07;;;3.70;99.90;;;4.43;100.00;99670.06;4922400;29;20722;-75
2022/01/22 04:00:33;;;;;;;4.80;3.00;;;3.70;99.90;;;4.44;100.00;99665.72;4922680;29;20470;-75
2022/01/22 04:03:27;;;;;;;3.50;3.20;;;3.80;99.90;;;4.40;100.00;99664.28;4924514;29;20507;-75
2022/01/22 04:06:22;;;;;;;2.90;2.60;;;3.70;99.90;;;4.39;100.00;99666.03;4922600;29;20469;-75
2022/01/22 04:08:53;;;;;;;7.87;3.20;;;3.80;99.90;;;4.39;100.00;99663.44;4921574;29;20474;-75
2022/01/22 04:11:24;;;;;;;10.77;4.00;;;3.80;99.90;;;4.29;100.00;99662.44;4922542;29;20530;-75
2022/01/22 04:13:59;;;;;;;7.60;3.80;;;3.70;99.90;;;4.31;100.00;99657.97;4922855;29;20473;-76
2022/01/22 04:16:30;;;;;;;8.20;3.77;;;3.80;99.90;;;4.33;100.00;99653.53;4922386;29;20466;-75
2022/01/22 04:24:51;;;;;;;7.80;3.23;;;3.70;99.90;;;4.38;100.00;99651.41;4924183;29;20496;-75
2022/01/22 04:27:26;;;;;;;11.27;4.17;;;3.70;99.90;;;4.37;100.00;99644.59;4924983;29;20474;-75
2022/01/22 04:30:00;;;;;;;6.63;3.73;;;3.70;99.90;;;4.32;100.00;99651.88;4923261;29;20473;-75
2022/01/22 04:32:32;;;;;;;5.40;2.90;;;3.70;99.90;;;4.36;100.00;99644.72;4922721;29;20469;-75
2022/01/22 04:35:02;;;;;;;7.50;2.90;;;3.70;99.90;;;4.31;100.00;99647.59;4922681;29;20557;-75
2022/01/22 04:37:31;;;;;;;9.37;4.80;;;3.60;99.90;;;4.33;100.00;99643.16;4922054;29;20483;-75
2022/01/22 04:40:02;;;;;;;6.47;3.40;;;3.70;99.90;;;4.38;100.00;99651.41;4923641;29;20477;-75
2022/01/22 04:42:35;;;;;;;5.17;3.13;;;3.90;99.90;;;4.40;100.00;99648.75;4920428;29;20978;-75
2022/01/22 04:45:14;;;;;;;4.87;2.77;;;3.80;99.90;;;4.41;100.00;99661.56;4917548;29;21040;-75
2022/01/22 04:47:52;;;;;;;18.87;8.37;;;3.80;99.90;;;4.40;100.00;99664.28;4921275;29;20563;-79
2022/01/22 04:55:56;;;;;;;11.23;3.30;;;3.80;99.90;;;4.46;100.00;99669.00;4925477;29;20587;-77
2022/01/22 04:58:27;;;;;;;8.60;3.40;;;3.80;99.90;;;4.44;100.00;99666.53;4925859;29;20463;-76
2022/01/22 05:00:59;;;;;;;7.60;3.70;;;3.80;99.90;;;4.44;100.00;99660.53;4924391;29;20498;-76
2022/01/22 05:03:29;;;;;;;4.83;2.50;;;3.70;99.90;;;4.43;100.00;99669.22;4923372;29;20455;-75
2022/01/22 05:06:00;;;;;;;11.67;3.17;;;3.80;99.90;;;4.45;100.00;99663.00;4925524;29;20494;-76
2022/01/22 05:08:30;;;;;;;14.00;2.87;;;3.90;99.90;;;4.47;100.00;99671.50;4925336;29;20578;-75
2022/01/22 05:11:00;;;;;;;3.97;2.90;;;3.90;99.90;;;4.45;100.00;99670.78;4924093;29;20502;-76
2022/01/22 05:13:33;;;;;;;11.23;2.80;;;3.80;99.90;;;4.47;100.00;99665.50;4923729;29;21089;-75
2022/01/22 05:16:02;;;;;;;4.63;3.20;;;3.90;99.90;;;4.46;100.00;99656.91;4926205;29;20496;-76
2022/01/22 05:18:37;;;;;;;8.30;4.43;;;3.90;99.90;;;4.47;100.00;99660.31;4925375;29;20905;-75
2022/01/22 05:21:12;;;;;;;11.97;6.30;;;3.80;99.90;;;4.37;100.00;99665.28;4923773;29;20450;-79
2022/01/22 05:23:43;;;;;;;8.03;3.77;;;3.70;99.90;;;4.42;100.00;99672.75;4923729;29;21464;-75
2022/01/22 05:26:30;;;;;;;7.33;2.80;;;3.80;99.90;;;4.42;100.00;99678.75;4923372;29;20490;-75
2022/01/22 05:29:18;;;;;;;7.10;3.20;;;3.80;99.90;;;4.45;100.00;99673.38;4922803;29;20463;-75
2022/01/22 05:32:16;;;;;;;3.40;2.50;;;3.80;99.90;;;4.38;100.00;99671.31;4926720;29;20466;-75
2022/01/22 05:37:32;;;;;;;3.17;2.53;;;3.60;99.90;;;4.37;100.00;99669.66;4928587;29;20544;-75
2022/01/22 05:40:02;;;;;;;7.00;3.20;;;3.60;99.90;;;4.36;100.00;99674.03;4926194;29;20815;-75
2022/01/22 05:42:32;;;;;;;7.40;3.53;;;3.70;99.90;;;4.41;100.00;99666.75;4928636;29;20460;-75
2022/01/22 05:45:04;;;;;;;7.80;2.60;;;3.80;99.90;;;4.45;100.00;99668.19;4926963;29;20576;-75
2022/01/22 05:47:36;;;;;;;3.47;2.70;;;3.80;99.90;;;4.47;100.00;99670.69;4927165;29;20955;-75
2022/01/22 05:50:10;;;;;;;2.90;2.50;;;3.80;99.90;;;4.47;100.00;99676.69;4929154;29;20479;-75
2022/01/22 05:52:52;;;;;;;6.27;2.90;;;3.70;99.90;;;4.44;100.00;99681.25;4927134;29;20473;-75
2022/01/22 05:55:41;;;;;;;5.03;2.80;;;3.70;99.90;;;4.43;100.00;99685.59;4927610;29;20538;-75
2022/01/22 06:01:05;;;;;;;3.60;2.97;;;3.70;99.90;;;4.37;100.00;99683.41;4925980;29;20488;-75
2022/01/22 06:03:36;;;;;;;9.93;3.07;;;3.80;99.90;;;4.33;100.00;99678.59;4926970;29;20553;-75
2022/01/22 06:06:06;;;;;;;7.20;3.63;;;3.70;99.90;;;4.36;100.00;99689.56;4925351;29;20482;-75
2022/01/22 06:08:41;;;;;;;5.80;3.37;;;3.80;99.90;;;4.39;100.00;99689.34;4926666;29;20461;-75
2022/01/22 06:11:12;;;;;;;12.77;3.10;;;3.80;99.90;;;4.41;100.00;99687.47;4927079;29;20952;-75
2022/01/22 06:13:47;;;;;;;5.43;2.80;;;3.70;99.90;;;4.41;100.00;99684.88;4927567;29;20486;-75
2022/01/22 06:16:21;;;;;;;5.63;3.30;;;3.60;99.90;;;4.45;100.00;99688.91;4926251;29;20598;-75
2022/01/22 06:18:51;;;;;;;8.63;3.00;;;3.70;99.90;;;4.46;100.00;99687.97;4928170;29;20462;-75
2022/01/22 06:21:21;;;;;;;14.90;3.60;;;3.60;99.90;;;4.42;100.00;99689.13;4927857;29;20478;-75
2022/01/22 06:23:51;;;;;;;5.23;3.20;;;3.60;99.90;;;4.45;100.00;99694.09;4926288;29;20518;-75
2022/01/22 06:26:21;;;;;;;6.93;3.67;;;3.70;99.90;;;4.40;100.00;99700.53;4925837;29;20466;-75
2022/01/22 06:28:50;;;;;;;4.73;3.43;;;3.60;99.90;;;4.38;100.00;99697.19;4927355;29;20482;-75
2022/01/22 06:31:23;;;;;;;4.57;3.40;;;3.60;99.90;;;4.29;100.00;99703.88;4928808;29;20969;-75
2022/01/22 06:33:52;;;;;;;5.43;4.07;;;3.50;99.90;;;4.30;100.00;99700.34;4930342;29;20457;-75
2022/01/22 06:36:22;;;;;;;7.53;4.20;;;3.50;99.90;;;4.36;100.00;99697.31;4930621;29;20511;-75
2022/01/22 06:38:57;;;;;;;8.57;3.70;;;3.60;99.90;;;4.42;100.00;99696.06;4930437;29;20465;-75
2022/01/22 06:41:46;;;;;;;4.60;3.20;;;3.70;99.90;;;4.42;100.00;99703.81;4931888;29;20454;-75
2022/01/22 06:44:18;;;;;;;5.23;3.20;;;3.70;99.90;;;4.41;100.00;99702.16;4928938;29;20462;-75
2022/01/22 06:46:51;;;;;;;8.73;3.40;;;3.70;99.90;;;4.33;100.00;99699.31;4931138;29;20460;-75
2022/01/22 06:49:22;;;;;;;3.60;2.60;;;3.70;99.90;;;4.39;100.00;99706.63;4929966;29;20450;-75
2022/01/22 06:51:54;;;;;;;4.90;3.20;;;3.70;99.90;;;4.41;100.00;99713.34;4929727;29;20559;-75
2022/01/22 06:54:25;;;;;;;6.87;4.40;;;3.70;99.90;;;4.44;100.00;99713.13;4929829;29;20465;-75
2022/01/22 06:56:55;;;;;;;5.87;3.83;;;3.80;99.90;;;4.46;100.00;99721.66;4931385;29;20529;-75
2022/01/22 06:59:24;;;;;;;7.53;4.17;;;3.70;99.90;;;4.47;100.00;99723.31;4929954;29;21172;-75
2022/01/22 07:01:56;;;;;;;4.43;3.37;;;3.70;99.90;;;4.48;100.00;99719.75;4930017;29;20451;-75
2022/01/22 07:04:27;;;;;;;3.50;2.83;;;3.70;99.90;;;4.45;100.00;99725.16;4930215;29;20476;-75
2022/01/22 07:06:56;;;;;;;5.27;3.03;;;3.80;99.90;;;4.48;100.00;99735.31;4929076;29;20891;-75
2022/01/22 07:09:26;;;;;;;5.50;3.10;;;3.80;99.90;;;4.51;100.00;99739.47;4929573;29;20793;-75
2022/01/22 07:11:56;;;;;;;3.20;2.90;;;3.90;99.90;;;4.49;100.00;99739.56;4930017;29;20488;-75
2022/01/22 07:14:27;;;;;;;3.73;3.30;;;3.80;99.90;;;4.47;100.00;99738.84;4929710;29;20822;-75
2022/01/22 07:16:59;;;;;;;4.57;3.63;;;3.80;99.90;;;4.47;100.00;99741.44;4930204;29;20508;-75
2022/01/22 07:19:30;;;;;;;4.33;3.60;;;3.80;99.90;;;4.48;100.00;99734.47;4930058;29;20459;-75
2022/01/22 07:22:05;;;;;;;5.63;3.70;;;3.70;99.90;;;4.51;100.00;99735.09;4928005;29;20509;-75
2022/01/22 07:24:37;;;;;;;5.60;3.33;;;3.90;99.90;;;4.51;100.00;99735.09;4927326;29;20519;-75
2022/01/22 07:27:08;;;;;;;5.37;3.20;;;3.80;99.90;;;4.55;100.00;99746.06;4928827;29;20790;-75
2022/01/22 07:29:38;;;;;;;3.77;3.47;;;3.90;99.90;;;4.57;100.00;99745.03;4928407;29;21181;-75
2022/01/22 07:32:14;;;;;;;3.70;2.90;;;3.90;99.90;;;4.56;100.00;99748.56;4928013;29;20461;-75
2022/01/22 07:34:44;;;;;;;5.40;3.67;;;4.00;99.90;;;4.43;100.00;99747.75;4927820;29;20491;-75
2022/01/22 07:37:14;;;;;;;6.57;3.63;;;3.80;99.90;;;4.47;100.00;99749.22;4928327;29;20896;-75
2022/01/22 07:39:42;;;;;;;3.43;2.90;;;3.90;99.90;;;4.52;100.00;99746.28;4928485;29;20505;-75
2022/01/22 07:42:13;;;;;;;8.00;3.50;;;4.00;99.90;;;4.52;100.00;99749.69;4927839;29;20510;-75
2022/01/22 07:44:44;;;;;;;5.53;3.43;;;4.00;99.90;;;4.52;100.00;99746.28;4928206;29;20573;-75
2022/01/22 07:47:15;;;;;;;5.50;3.40;;;3.90;99.90;;;4.55;100.00;99746.06;4928045;29;20457;-75
2022/01/22 07:49:46;;;;;;;5.63;4.07;;;4.10;99.90;;;4.58;100.00;99748.47;4928124;29;20461;-75
2022/01/22 07:52:16;;;;;;;4.30;3.47;;;4.00;99.90;;;4.59;100.00;99752.69;4929253;29;20871;-75
2022/01/22 07:54:45;;;;;;;6.17;3.60;;;4.00;99.90;;;4.63;100.00;99753.28;4927844;29;20801;-75
2022/01/22 07:57:16;;;;;;;6.30;3.70;;;4.00;99.90;;;4.62;100.00;99757.66;4928216;29;20501;-75
2022/01/22 07:59:46;;;;;;;5.00;3.47;;;3.90;99.90;;;4.65;100.00;99757.44;4927933;29;20461;-75
2022/01/22 08:02:18;;;;;;;4.80;4.00;;;3.90;99.90;;;4.61;100.00;99760.38;4928297;29;20538;-74
2022/01/22 08:04:48;;;;;;;5.50;4.10;;;3.90;99.90;;;4.53;100.00;99756.53;4926975;29;20829;-75
2022/01/22 08:07:17;;;;;;;5.37;4.20;;;3.80;99.90;;;4.51;100.00;99765.38;4928958;29;20504;-75
2022/01/22 08:09:48;;;;;;;4.90;3.97;;;3.80;99.90;;;4.41;100.00;99765.16;4928627;29;20446;-74
2022/01/22 08:12:18;;;;;;;4.80;3.70;;;3.60;99.90;;;4.40;100.00;99760.91;4927751;29;20443;-75
2022/01/22 08:14:47;;;;;;;8.07;4.53;;;3.70;99.90;;;4.49;100.00;99762.88;4927994;29;20462;-75
2022/01/22 08:17:17;;;;;;;4.87;3.80;;;3.80;99.90;;;4.54;100.00;99757.38;4929442;29;20509;-75
2022/01/22 08:19:48;;;;;;;4.83;4.10;;;3.90;99.90;;;4.58;100.00;99756.22;4928953;29;20465;-75
2022/01/22 08:22:17;;;;;;;10.33;4.00;;;3.90;99.90;;;4.55;100.00;99757.25;4927781;29;20505;-75
2022/01/22 08:24:47;;;;;;;5.50;3.77;;;3.80;99.90;;;4.58;100.00;99761.41;4928410;29;20540;-75
2022/01/22 08:27:19;;;;;;;5.80;4.20;;;3.80;99.90;;;4.57;100.00;99757.16;4927599;29;20456;-75
2022/01/22 08:29:48;;;;;;;4.63;3.63;;;3.90;99.90;;;4.54;100.00;99765.97;4928065;29;20453;-75
2022/01/22 08:32:54;;;;;;;6.50;4.37;;;3.90;99.90;;;4.56;100.00;99761.50;4928567;29;20460;-75
2022/01/22 08:38:08;;;;;;;9.30;4.77;;;3.90;99.90;;;4.53;100.00;99764.31;4928826;29;20507;-75
2022/01/22 08:40:37;;;;;;;11.30;5.17;;;3.80;99.90;;;4.58;100.00;99774.38;4928613;29;20461;-75
2022/01/22 08:43:07;;;;;;;7.07;4.20;;;3.90;99.90;;;4.57;100.00;99770.09;4928253;29;20576;-75
2022/01/22 08:45:38;;;;;;;7.30;4.47;;;3.90;99.90;;;4.63;100.00;99774.03;4929321;29;20584;-75
2022/01/22 08:48:09;;;;;;;5.63;4.37;;;4.10;99.90;;;4.66;100.00;99778.97;4927929;29;20454;-75
2022/01/22 08:50:38;;;;;;;6.80;5.00;;;4.10;99.90;;;4.70;100.00;99775.25;4927563;29;20519;-75
2022/01/22 08:53:08;;;;;;;5.10;4.57;;;4.10;99.90;;;4.74;100.00;99776.69;4928602;29;20513;-75
2022/01/22 08:55:37;;;;;;;6.47;4.23;;;4.20;99.90;;;4.71;100.00;99774.31;4927633;29;20530;-75
2022/01/22 08:58:08;;;;;;;5.80;4.23;;;4.20;99.90;;;4.74;100.00;99774.94;4928925;29;20989;-75
2022/01/22 09:00:39;;;;;;;7.77;4.73;;;4.10;99.90;;;4.72;100.00;99779.38;4927242;29;20455;-75
2022/01/22 09:03:12;;;;;;;5.67;4.20;;;4.10;99.90;;;4.73;100.00;99780.22;4927824;29;20485;-75
2022/01/22 09:05:47;;;;;;;5.60;4.00;;;4.10;99.90;;;4.70;100.00;99786.44;4928531;29;20825;-75
2022/01/22 09:08:16;;;;;;;5.07;3.97;;;4.00;99.90;;;4.72;100.00;99797.53;4928052;29;20452;-75
2022/01/22 09:10:46;;;;;;;5.20;4.53;;;4.00;99.90;;;4.71;100.00;99795.06;4927484;29;20449;-75
2022/01/22 09:13:15;;;;;;;6.43;4.23;;;4.00;99.90;;;4.70;100.00;99795.97;4927928;29;20492;-75
2022/01/22 09:15:44;;;;;;;6.67;4.60;;;4.10;99.90;;;4.74;100.00;99797.44;4928412;29;20500;-75
2022/01/22 09:18:15;;;;;;;5.80;4.00;;;4.10;99.90;;;4.74;100.00;99802.59;4927713;29;20596;-75
2022/01/22 09:21:01;;;;;;;5.00;4.50;;;4.10;99.90;;;4.79;100.00;99805.72;4925598;29;20462;-75
2022/01/22 09:23:33;;;;;;;6.63;4.23;;;4.10;99.90;;;4.84;100.00;99798.44;4926045;28;20962;-75
2022/01/22 09:26:02;;;;;;;5.20;4.50;;;4.20;99.90;;;4.86;100.00;99806.94;4924337;29;20461;-75
2022/01/22 09:28:34;;;;;;;4.67;4.00;;;4.20;99.90;;;4.92;100.00;99809.09;4926132;29;20468;-75
2022/01/22 09:31:05;;;;;;;5.33;4.40;;;4.40;99.90;;;4.92;100.00;99807.34;4925858;29;20785;-75
2022/01/22 09:33:35;;;;;;;4.53;3.43;;;4.30;99.90;;;4.97;100.00;99805.25;4927436;29;20473;-75
2022/01/22 09:36:11;;;;;;;9.80;4.77;;;4.30;99.90;;;5.00;100.00;99805.03;4924735;28;20967;-75
2022/01/22 09:38:40;;;;;;;5.00;3.87;;;4.30;99.90;;;5.06;100.00;99811.56;4926922;29;20505;-75
2022/01/22 09:41:10;;;;;;;6.07;4.40;;;4.40;99.90;;;5.08;100.00;99800.13;4924558;29;20455;-75
2022/01/22 09:43:39;;;;;;;5.20;4.13;;;4.40;99.90;;;5.10;100.00;99807.81;4925553;29;20446;-75
2022/01/22 09:46:09;;;;;;;5.13;4.50;;;4.30;99.90;;;5.10;100.00;99805.22;4924766;29;20675;-75
2022/01/22 09:48:43;;;;;;;5.27;4.23;;;4.40;99.90;;;5.16;100.00;99809.13;4926304;29;20952;-75
2022/01/22 09:51:15;;;;;;;6.30;4.67;;;4.40;99.90;;;5.18;100.00;99808.06;4925350;29;20549;-75
2022/01/22 09:53:46;;;;;;;6.40;4.70;;;4.50;99.90;;;5.20;100.00;99805.38;4925383;29;20455;-75
2022/01/22 09:56:20;;;;;;;5.27;4.53;;;4.60;99.90;;;5.21;100.00;99804.44;4925788;29;20530;-75
2022/01/22 09:58:51;;;;;;;5.57;4.73;;;4.60;99.90;;;5.23;100.00;99800.81;4925520;29;20561;-75
2022/01/22 10:01:25;;;;;;;6.63;5.10;;;4.60;99.90;;;5.22;100.00;99808.69;4924976;29;20568;-75
2022/01/22 10:04:01;;;;;;;4.17;3.77;;;4.60;99.90;;;5.20;100.00;99805.38;4924600;29;21072;-75
2022/01/22 10:06:34;;;;;;;5.40;3.60;;;4.60;99.90;;;5.15;100.00;99799.69;4929663;28;20458;-75
2022/01/22 10:09:23;;;;;;;4.43;3.33;;;4.50;99.90;;;5.21;100.00;99810.44;4931119;29;21026;-75
2022/01/22 10:12:11;;;;;;;4.53;3.87;;;4.60;99.90;;;5.24;100.00;99799.84;4929573;29;20619;-75
2022/01/22 10:15:25;;;;;;;6.50;3.77;;;4.60;99.90;;;5.20;100.00;99801.03;4930654;29;20461;-75
2022/01/22 10:17:57;;;;;;;5.83;3.77;;;4.50;99.90;;;5.21;100.00;99801.84;4929226;29;20845;-75
2022/01/22 10:20:42;;;;;;;4.93;3.43;;;4.50;99.90;;;5.23;100.00;99803.41;4930612;29;20452;-75
2022/01/22 10:23:22;;;;;;;4.60;3.57;;;4.60;99.90;;;5.23;100.00;99806.00;4931933;29;21009;-75
2022/01/22 10:26:01;;;;;;;5.83;3.13;;;4.60;99.90;;;5.26;100.00;99816.16;4931021;29;20486;-75
2022/01/22 10:28:44;;;;;;;5.37;3.63;;;4.70;99.90;;;5.27;100.00;99812.63;4930589;29;20829;-74
2022/01/22 10:31:24;;;;;;;3.77;3.30;;;4.70;99.90;;;5.26;100.00;99810.97;4929758;29;20826;-75
2022/01/22 10:34:13;;;;;;;3.77;3.03;;;4.70;99.90;;;5.33;100.00;99807.00;4929782;29;20936;-75
2022/01/22 10:36:58;;;;;;;4.37;3.53;;;4.70;99.90;;;5.32;100.00;99810.50;4931157;29;20959;-75
2022/01/22 10:39:30;;;;;;;5.73;3.40;;;4.80;99.90;;;5.37;100.00;99811.03;4929923;29;20561;-75
2022/01/22 10:42:00;;;;;;;4.40;3.63;;;4.90;99.90;;;5.34;100.00;99811.25;4930984;29;20451;-75
2022/01/22 10:44:46;;;;;;;4.87;3.07;;;4.70;99.90;;;5.43;100.00;99813.16;4929954;29;21183;-75
2022/01/22 10:47:20;;;;;;;4.33;3.20;;;4.90;99.90;;;5.41;100.00;99815.06;4930672;29;20997;-75
2022/01/22 10:49:50;;;;;;;5.70;2.70;;;4.90;99.90;;;5.42;100.00;99811.50;4930061;29;20466;-75
2022/01/22 10:52:21;;;;;;;3.63;2.50;;;4.80;99.90;;;5.41;100.00;99809.88;4930341;29;20466;-74
2022/01/22 10:55:02;;;;;;;3.00;2.70;;;4.70;99.90;;;5.35;100.00;99806.84;4929754;29;20470;-75
2022/01/22 10:57:33;;;;;;;4.43;3.37;;;4.60;99.90;;;5.39;100.00;99803.94;4930868;29;20438;-75
2022/01/22 11:00:05;;;;;;;3.30;3.00;;;4.80;99.90;;;5.45;100.00;99802.66;4930440;29;20533;-75
2022/01/22 11:02:37;;;;;;;6.40;3.00;;;4.80;99.90;;;5.50;100.00;99795.38;4930559;29;20502;-75
2022/01/22 11:05:34;;;;;;;3.27;2.83;;;4.90;99.90;;;5.54;100.00;99800.25;4928825;29;20553;-75
2022/01/22 11:08:12;;;;;;;3.57;3.10;;;4.90;99.90;;;5.63;100.00;99797.91;4929848;29;20455;-75
2022/01/22 11:10:43;;;;;;;3.70;3.00;;;5.10;99.90;;;5.63;100.00;99797.91;4928368;29;20466;-75
2022/01/22 11:13:14;;;;;;;3.83;3.23;;;5.10;99.90;;;5.59;100.00;99797.28;4930168;29;21015;-75
2022/01/22 11:15:45;;;;;;;4.13;2.77;;;5.00;99.90;;;5.66;100.00;99789.91;4930263;29;20467;-75
2022/01/22 11:18:18;;;;;;;2.83;2.53;;;5.10;99.90;;;5.72;100.00;99792.06;4929286;29;20482;-75
2022/01/22 11:20:53;;;;;;;5.17;3.07;;;5.30;99.90;;;5.67;100.00;99804.53;4928790;29;20470;-75
2022/01/22 11:23:26;;;;;;;3.53;2.90;;;5.20;99.90;;;5.69;100.00;99802.66;4928334;29;20514;-75
2022/01/22 11:25:56;;;;;;;4.97;3.10;;;5.30;99.90;;;5.62;100.00;99802.28;4927614;29;20453;-75
2022/01/22 11:28:27;;;;;;;3.33;2.53;;;5.10;99.90;;;5.65;100.00;99796.88;4928468;29;20470;-75
2022/01/22 11:31:00;;;;;;;5.00;3.50;;;5.10;99.90;;;5.68;100.00;99793.22;4928352;29;20542;-75
2022/01/22 11:33:33;;;;;;;6.23;3.30;;;5.10;99.90;;;5.67;100.00;99792.38;4928052;29;20457;-75
2022/01/22 11:36:13;;;;;;;3.50;2.70;;;5.10;99.90;;;5.70;100.00;99792.16;4927979;28;20506;-75
2022/01/22 11:38:55;;;;;;;2.97;2.13;;;5.20;99.90;;;5.69;100.00;99792.28;4927490;29;20537;-75
2022/01/22 11:41:26;;;;;;;3.20;2.60;;;5.20;99.90;;;5.73;100.00;99783.31;4930310;29;20458;-74